createdAt,value
2018-10-19T00:01:52.614Z,5.90
2018-10-19T00:04:20.777Z,5.47
2018-10-19T00:06:49.258Z,6.27
2018-10-19T00:09:18.611Z,6.67
2018-10-19T00:11:46.806Z,6.00
2018-10-19T00:14:16.210Z,6.20
2018-10-19T00:16:44.423Z,6.20
2018-10-19T00:19:12.602Z,6.17
2018-10-19T00:21:40.806Z,6.50
2018-10-19T00:24:08.999Z,5.50
2018-10-19T00:26:37.210Z,6.13
2018-10-19T00:29:06.132Z,5.23
2018-10-19T00:31:34.572Z,6.20
2018-10-19T00:34:03.114Z,5.53
2018-10-19T00:36:31.543Z,5.87
2018-10-19T00:39:00.778Z,5.20
2018-10-19T00:41:29.654Z,5.27
2018-10-19T00:43:57.930Z,5.77
2018-10-19T00:46:26.846Z,5.63
2018-10-19T00:48:55.041Z,5.50
2018-10-19T00:51:23.949Z,6.23
2018-10-19T00:53:52.186Z,5.70
2018-10-19T00:56:22.344Z,5.90
2018-10-19T00:58:50.578Z,5.97
2018-10-19T01:01:18.790Z,6.10
2018-10-19T01:03:47.073Z,6.73
2018-10-19T01:06:15.481Z,5.47
2018-10-19T01:08:44.065Z,6.60
2018-10-19T01:11:12.387Z,6.13
2018-10-19T01:13:40.487Z,6.87
2018-10-19T01:16:08.654Z,7.27
2018-10-19T01:18:37.867Z,6.83
2018-10-19T01:21:07.087Z,7.53
2018-10-19T01:23:35.238Z,6.80
2018-10-19T01:26:03.406Z,7.83
2018-10-19T01:28:31.843Z,7.67
2018-10-19T01:31:00.010Z,8.03
2018-10-19T01:33:28.173Z,7.40
2018-10-19T01:35:56.457Z,8.30
2018-10-19T01:38:24.930Z,8.40
2018-10-19T01:40:53.645Z,8.53
2018-10-19T01:43:21.862Z,8.80
2018-10-19T01:45:55.510Z,9.30
2018-10-19T01:48:24.364Z,9.10
2018-10-19T01:50:54.932Z,9.43
2018-10-19T01:53:23.134Z,9.50
2018-10-19T01:55:51.338Z,10.33
2018-10-19T01:58:20.291Z,10.67
2018-10-19T02:00:48.774Z,10.47
2018-10-19T02:03:16.992Z,10.83
2018-10-19T02:05:45.982Z,11.20
2018-10-19T02:08:14.166Z,11.43
2018-10-19T02:10:42.377Z,10.13
2018-10-19T02:13:11.474Z,11.43
2018-10-19T02:15:39.761Z,11.40
2018-10-19T02:18:08.870Z,11.27
2018-10-19T02:20:37.593Z,12.67
2018-10-19T02:23:07.300Z,11.17
2018-10-19T02:25:35.818Z,11.97
2018-10-19T02:28:04.871Z,11.30
2018-10-19T02:30:33.286Z,12.30
2018-10-19T02:33:01.642Z,11.93
2018-10-19T02:35:29.944Z,13.20
2018-10-19T02:37:58.569Z,12.83
2018-10-19T02:40:26.755Z,12.40
2018-10-19T02:42:55.009Z,13.23
2018-10-19T02:45:23.905Z,12.40
2018-10-19T02:47:52.090Z,13.90
2018-10-19T02:50:22.251Z,13.57
2018-10-19T02:52:52.038Z,13.67
2018-10-19T02:55:20.285Z,13.50
2018-10-19T02:57:48.468Z,13.07
2018-10-19T03:00:16.795Z,14.33
2018-10-19T03:02:44.974Z,13.63
2018-10-19T03:05:13.257Z,13.07
2018-10-19T03:07:42.233Z,12.97
2018-10-19T03:10:10.426Z,12.70
2018-10-19T03:12:38.693Z,12.23
2018-10-19T03:15:07.490Z,12.60
2018-10-19T03:17:35.591Z,11.90
2018-10-19T03:20:04.515Z,11.83
2018-10-19T03:22:34.866Z,11.60
2018-10-19T03:25:04.754Z,11.10
2018-10-19T03:27:33.082Z,11.37
2018-10-19T03:30:01.406Z,11.90
2018-10-19T03:32:29.848Z,12.60
2018-10-19T03:34:58.123Z,11.20
2018-10-19T03:37:26.275Z,11.90
2018-10-19T03:39:54.471Z,11.67
2018-10-19T03:42:22.894Z,12.63
2018-10-19T03:44:51.086Z,11.60
2018-10-19T03:47:19.340Z,11.53
2018-10-19T03:49:47.463Z,11.73
2018-10-19T03:52:15.719Z,12.33
2018-10-19T03:54:43.986Z,12.60
2018-10-19T03:57:12.365Z,11.13
2018-10-19T03:59:40.431Z,12.10
2018-10-19T04:02:08.648Z,12.93
2018-10-19T04:04:36.873Z,11.60
2018-10-19T04:07:05.478Z,11.47
2018-10-19T04:09:34.027Z,12.03
2018-10-19T04:12:02.831Z,11.87
2018-10-19T04:14:31.018Z,12.60
2018-10-19T04:16:59.251Z,13.50
2018-10-19T04:19:34.830Z,12.43
2018-10-19T04:22:04.882Z,11.90
2018-10-19T04:24:35.021Z,12.13
2018-10-19T04:27:03.194Z,12.27
2018-10-19T04:29:31.538Z,12.27
2018-10-19T04:31:59.806Z,12.43
2018-10-19T04:34:27.989Z,11.87
2018-10-19T04:37:02.593Z,12.47
2018-10-19T04:39:31.066Z,12.57
2018-10-19T04:41:59.284Z,12.47
2018-10-19T04:44:27.876Z,12.17
2018-10-19T04:46:56.108Z,12.50
2018-10-19T04:49:24.590Z,13.50
2018-10-19T04:51:52.807Z,12.73
2018-10-19T04:54:22.298Z,12.60
2018-10-19T04:56:52.168Z,14.03
2018-10-19T04:59:20.717Z,13.70
2018-10-19T05:01:48.907Z,12.40
2018-10-19T05:04:17.570Z,14.13
2018-10-19T05:06:46.140Z,13.87
2018-10-19T05:09:14.329Z,13.57
2018-10-19T05:11:42.478Z,13.37
2018-10-19T05:14:10.697Z,12.60
2018-10-19T05:16:53.722Z,14.10
2018-10-19T05:19:21.927Z,14.10
2018-10-19T05:21:50.164Z,14.13
2018-10-19T05:24:18.349Z,13.30
2018-10-19T05:26:47.187Z,14.13
2018-10-19T05:29:15.491Z,15.27
2018-10-19T05:31:44.069Z,14.30
2018-10-19T05:34:12.206Z,14.17
2018-10-19T05:36:40.423Z,14.33
2018-10-19T05:39:09.271Z,16.27
2018-10-19T05:41:37.455Z,15.07
2018-10-19T05:44:05.667Z,15.63
2018-10-19T05:46:33.873Z,15.80
2018-10-19T05:49:02.142Z,15.17
2018-10-19T05:51:30.510Z,15.83
2018-10-19T05:53:58.761Z,17.17
2018-10-19T05:56:26.958Z,17.10
2018-10-19T05:58:55.863Z,17.50
2018-10-19T06:01:24.066Z,17.43
2018-10-19T06:03:52.996Z,17.07
2018-10-19T06:06:21.187Z,16.90
2018-10-19T06:08:49.372Z,18.77
2018-10-19T06:11:17.575Z,18.00
2018-10-19T06:13:45.818Z,16.93
2018-10-19T06:16:13.943Z,17.37
2018-10-19T06:18:42.567Z,16.90
2018-10-19T06:21:10.824Z,16.97
2018-10-19T06:23:38.960Z,17.80
2018-10-19T06:26:07.297Z,16.57
2018-10-19T06:28:35.839Z,18.67
2018-10-19T06:31:04.061Z,18.30
2018-10-19T06:33:32.296Z,17.03
2018-10-19T06:36:01.327Z,17.43
2018-10-19T06:38:29.599Z,17.37
2018-10-19T06:40:57.831Z,16.67
2018-10-19T06:43:26.039Z,16.53
2018-10-19T06:45:54.294Z,15.20
2018-10-19T06:48:23.426Z,16.37
2018-10-19T06:50:51.624Z,14.43
2018-10-19T06:53:19.844Z,14.50
2018-10-19T06:55:48.071Z,15.40
2018-10-19T06:58:16.375Z,15.90
2018-10-19T07:00:44.546Z,14.03
2018-10-19T07:03:12.766Z,13.70
2018-10-19T07:05:41.062Z,14.00
2018-10-19T07:08:09.806Z,13.13
2018-10-19T07:10:37.909Z,12.90
2018-10-19T07:13:06.055Z,13.73
2018-10-19T07:15:34.263Z,13.50
2018-10-19T07:18:02.662Z,14.23
2018-10-19T07:20:31.442Z,14.57
2018-10-19T07:22:59.669Z,13.80
2018-10-19T07:25:27.954Z,15.40
2018-10-19T07:27:56.142Z,13.77
2018-10-19T07:30:24.368Z,14.40
2018-10-19T07:32:52.590Z,14.33
2018-10-19T07:35:20.767Z,13.23
2018-10-19T07:37:49.002Z,13.33
2018-10-19T07:40:17.196Z,14.03
2018-10-19T07:42:46.067Z,13.57
2018-10-19T07:45:14.220Z,13.43
2018-10-19T07:47:42.506Z,13.48
2018-10-19T07:50:10.675Z,13.10
2018-10-19T07:52:39.777Z,13.63
2018-10-19T07:55:09.045Z,13.38
2018-10-19T07:57:37.211Z,12.53
2018-10-19T08:00:06.339Z,14.17
2018-10-19T08:02:34.722Z,13.72
2018-10-19T08:05:02.906Z,13.37
2018-10-19T08:07:31.238Z,14.33
2018-10-19T08:10:00.374Z,14.20
2018-10-19T08:12:28.554Z,13.10
2018-10-19T08:14:56.855Z,13.68
2018-10-19T08:17:25.014Z,14.58
2018-10-19T08:19:54.007Z,14.23
2018-10-19T08:22:22.185Z,13.98
2018-10-19T08:24:51.588Z,14.80
2018-10-19T08:27:19.858Z,14.55
2018-10-19T08:29:48.004Z,14.30
2018-10-19T08:32:16.694Z,13.75
2018-10-19T08:34:45.422Z,13.22
2018-10-19T08:37:13.710Z,14.55
2018-10-19T08:39:42.038Z,14.25
2018-10-19T08:42:10.410Z,15.35
2018-10-19T08:44:38.619Z,12.73
2018-10-19T08:47:08.356Z,14.55
2018-10-19T08:49:36.488Z,13.90
2018-10-19T08:52:04.702Z,14.05
2018-10-19T08:54:33.016Z,12.85
2018-10-19T08:57:01.352Z,13.25
2018-10-19T08:59:30.746Z,13.68
2018-10-19T09:01:59.026Z,14.40
2018-10-19T09:04:27.278Z,13.40
2018-10-19T09:06:55.483Z,13.95
2018-10-19T09:09:23.723Z,13.70
2018-10-19T09:11:52.097Z,14.28
2018-10-19T09:14:31.714Z,13.75
2018-10-19T09:17:00.003Z,14.80
2018-10-19T09:19:28.158Z,13.60
2018-10-19T09:21:56.367Z,13.72
2018-10-19T09:24:25.502Z,13.65
2018-10-19T09:26:53.739Z,14.47
2018-10-19T09:29:22.017Z,12.50
2018-10-19T09:31:50.162Z,13.38
2018-10-19T09:34:18.798Z,13.90
2018-10-19T09:36:47.133Z,13.43
2018-10-19T09:39:15.530Z,14.18
2018-10-19T09:41:43.998Z,13.78
2018-10-19T09:44:12.825Z,13.25
2018-10-19T09:46:41.706Z,12.98
2018-10-19T09:49:12.544Z,12.78
2018-10-19T09:51:41.567Z,12.90
2018-10-19T09:54:10.873Z,11.63
2018-10-19T09:56:39.562Z,12.73
2018-10-19T09:59:07.836Z,13.25
2018-10-19T10:01:36.282Z,13.10
2018-10-19T10:04:04.629Z,13.43
2018-10-19T10:06:32.815Z,12.45
2018-10-19T10:09:01.082Z,13.18
2018-10-19T10:11:29.969Z,12.88
2018-10-19T10:13:58.145Z,12.65
2018-10-19T10:16:26.322Z,12.65
2018-10-19T10:18:54.534Z,11.73
2018-10-19T10:21:22.730Z,12.35
2018-10-19T10:23:50.882Z,12.23
2018-10-19T10:26:20.578Z,11.80
2018-10-19T10:28:48.807Z,12.13
2018-10-19T10:31:16.971Z,11.90
2018-10-19T10:33:45.286Z,11.43
2018-10-19T10:36:13.446Z,11.18
2018-10-19T10:38:41.719Z,12.85
2018-10-19T10:41:10.483Z,11.93
2018-10-19T10:43:38.669Z,12.37
2018-10-19T10:46:07.231Z,13.03
2018-10-19T10:48:36.309Z,11.53
2018-10-19T10:51:04.673Z,13.85
2018-10-19T10:53:32.867Z,12.20
2018-10-19T10:56:01.088Z,12.03
2018-10-19T10:58:29.954Z,14.20
2018-10-19T11:00:59.543Z,12.47
2018-10-19T11:03:29.534Z,12.00
2018-10-19T11:05:57.741Z,12.20
2018-10-19T11:08:25.919Z,11.83
2018-10-19T11:11:02.469Z,11.50
2018-10-19T11:13:30.642Z,12.20
2018-10-19T11:15:59.030Z,12.60
2018-10-19T11:18:27.255Z,11.88
2018-10-19T11:20:55.466Z,11.50
2018-10-19T11:23:23.638Z,11.50
2018-10-19T11:25:51.790Z,11.38
2018-10-19T11:28:19.990Z,12.68
2018-10-19T11:30:49.934Z,12.73
2018-10-19T11:33:18.141Z,13.70
2018-10-19T11:35:46.535Z,12.37
2018-10-19T11:38:14.962Z,12.07
2018-10-19T11:40:43.154Z,13.20
2018-10-19T11:43:11.397Z,12.53
2018-10-19T11:45:39.890Z,13.40
2018-10-19T11:48:08.214Z,13.43
2018-10-19T11:50:36.862Z,14.30
2018-10-19T11:53:05.258Z,14.75
2018-10-19T11:55:33.491Z,15.20
2018-10-19T11:58:01.817Z,13.55
2018-10-19T12:00:30.000Z,14.47
2018-10-19T12:02:58.286Z,13.18
2018-10-19T12:05:26.438Z,14.60
2018-10-19T12:07:55.249Z,15.93
2018-10-19T12:10:24.027Z,15.15
2018-10-19T12:12:52.900Z,15.30
2018-10-19T12:15:21.042Z,15.15
2018-10-19T12:17:49.242Z,13.95
2018-10-19T12:20:18.403Z,14.23
2018-10-19T12:22:46.970Z,14.83
2018-10-19T12:25:15.827Z,14.87
2018-10-19T12:27:44.058Z,15.90
2018-10-19T12:30:13.374Z,16.00
2018-10-19T12:32:41.838Z,15.20
2018-10-19T12:35:11.734Z,15.72
2018-10-19T12:37:40.082Z,15.15
2018-10-19T12:40:09.110Z,17.70
2018-10-19T12:42:37.686Z,19.85
2018-10-19T12:45:10.932Z,19.30
2018-10-19T12:47:42.693Z,18.15
2018-10-19T12:50:10.870Z,19.42
2018-10-19T12:52:39.078Z,18.85
2018-10-19T12:55:08.624Z,18.48
2018-10-19T12:57:37.093Z,17.90
2018-10-19T13:00:06.491Z,17.57
2018-10-19T13:02:34.679Z,17.50
2018-10-19T13:05:03.223Z,16.02
2018-10-19T13:07:32.207Z,17.02
2018-10-19T13:10:00.449Z,15.95
2018-10-19T13:12:29.078Z,16.27
2018-10-19T13:14:59.145Z,18.00
2018-10-19T13:17:27.352Z,18.00
2018-10-19T13:19:55.554Z,16.97
2018-10-19T13:22:23.816Z,18.65
2018-10-19T13:24:51.994Z,17.00
2018-10-19T13:27:20.486Z,16.95
2018-10-19T13:29:48.798Z,16.32
2018-10-19T13:32:17.700Z,16.35
2018-10-19T13:34:46.107Z,16.45
2018-10-19T13:37:14.623Z,14.90
2018-10-19T13:39:42.797Z,15.13
2018-10-19T13:42:10.981Z,16.82
2018-10-19T13:44:39.195Z,16.70
2018-10-19T13:47:07.764Z,15.15
2018-10-19T13:49:36.713Z,16.23
2018-10-19T13:52:04.943Z,14.58
2018-10-19T13:54:33.135Z,14.75
2018-10-19T13:57:01.522Z,14.78
2018-10-19T13:59:30.421Z,12.03
2018-10-19T14:01:58.610Z,12.78
2018-10-19T14:04:26.810Z,13.32
2018-10-19T14:06:55.026Z,12.30
2018-10-19T14:09:23.420Z,14.13
2018-10-19T14:11:51.711Z,12.75
2018-10-19T14:14:19.886Z,14.13
2018-10-19T14:16:48.378Z,15.30
2018-10-19T14:19:16.664Z,14.43
2018-10-19T14:21:44.826Z,15.55
2018-10-19T14:24:13.008Z,14.43
2018-10-19T14:26:41.436Z,13.98
2018-10-19T14:29:09.685Z,14.00
2018-10-19T14:31:37.815Z,14.43
2018-10-19T14:34:05.991Z,13.60
2018-10-19T14:36:34.166Z,14.38
2018-10-19T14:39:02.447Z,13.62
2018-10-19T14:41:30.570Z,14.07
2018-10-19T14:43:58.780Z,16.60
2018-10-19T14:46:26.960Z,15.13
2018-10-19T14:48:55.595Z,14.35
2018-10-19T14:51:23.762Z,14.75
2018-10-19T14:53:51.965Z,13.28
2018-10-19T14:56:20.123Z,13.50
2018-10-19T14:58:48.327Z,15.65
2018-10-19T15:01:16.766Z,16.25
2018-10-19T15:03:44.986Z,18.12
2018-10-19T15:06:13.187Z,17.27
2018-10-19T15:08:41.366Z,15.40
2018-10-19T15:11:09.720Z,16.87
2018-10-19T15:13:37.746Z,16.77
2018-10-19T15:16:05.938Z,15.32
2018-10-19T15:18:34.178Z,16.65
2018-10-19T15:21:02.433Z,16.60
2018-10-19T15:23:30.559Z,16.30
2018-10-19T15:25:58.795Z,15.70
2018-10-19T15:28:26.918Z,13.95
2018-10-19T15:30:55.931Z,14.45
2018-10-19T15:33:24.115Z,13.72
2018-10-19T15:35:52.275Z,14.23
2018-10-19T15:38:22.435Z,13.00
2018-10-19T15:40:50.613Z,12.77
2018-10-19T15:43:18.798Z,12.63
2018-10-19T15:45:46.958Z,13.67
2018-10-19T15:48:15.219Z,13.70
2018-10-19T15:50:43.309Z,12.63
2018-10-19T15:53:11.514Z,14.63
2018-10-19T15:55:40.204Z,15.47
2018-10-19T15:58:08.880Z,14.10
2018-10-19T16:00:37.105Z,14.87
2018-10-19T16:03:05.337Z,15.07
2018-10-19T16:05:33.421Z,14.73
2018-10-19T16:08:01.962Z,14.80
2018-10-19T16:10:30.787Z,14.57
2018-10-19T16:12:59.290Z,14.87
2018-10-19T16:15:28.035Z,13.80
2018-10-19T16:17:56.257Z,14.17
2018-10-19T16:20:24.407Z,14.67
2018-10-19T16:22:56.226Z,15.37
2018-10-19T16:25:24.670Z,14.80
2018-10-19T16:27:52.875Z,15.90
2018-10-19T16:30:21.086Z,17.53
2018-10-19T16:32:49.312Z,16.73
2018-10-19T16:35:17.470Z,16.93
2018-10-19T16:37:45.820Z,17.83
2018-10-19T16:40:14.090Z,18.03
2018-10-19T16:42:42.262Z,17.97
2018-10-19T16:45:10.855Z,17.50
2018-10-19T16:47:39.598Z,17.33
2018-10-19T16:50:08.211Z,17.60
2018-10-19T16:52:36.438Z,17.53
2018-10-19T16:55:04.577Z,19.20
2018-10-19T16:57:33.607Z,20.07
2018-10-19T17:00:01.926Z,19.93
2018-10-19T17:02:30.314Z,20.20
2018-10-19T17:04:58.638Z,20.17
2018-10-19T17:07:26.715Z,18.47
2018-10-19T17:09:54.943Z,18.20
2018-10-19T17:12:23.235Z,19.00
2018-10-19T17:14:51.418Z,20.77
2018-10-19T17:17:19.631Z,19.60
2018-10-19T17:19:49.530Z,19.37
2018-10-19T17:22:17.735Z,20.23
2018-10-19T17:24:45.927Z,20.83
2018-10-19T17:27:14.618Z,19.73
2018-10-19T17:29:42.670Z,21.03
2018-10-19T17:32:10.906Z,20.40
2018-10-19T17:34:39.089Z,21.33
2018-10-19T17:37:07.336Z,21.30
2018-10-19T17:39:35.418Z,20.40
2018-10-19T17:42:03.864Z,21.27
2018-10-19T17:44:32.033Z,22.70
2018-10-19T17:47:00.263Z,23.10
2018-10-19T17:49:28.486Z,23.57
2018-10-19T17:51:56.674Z,22.30
2018-10-19T17:54:24.997Z,21.00
2018-10-19T17:56:53.142Z,21.50
2018-10-19T17:59:21.307Z,22.20
2018-10-19T18:01:49.831Z,22.40
2018-10-19T18:04:18.010Z,23.53
2018-10-19T18:06:46.434Z,22.20
2018-10-19T18:09:15.705Z,22.43
2018-10-19T18:11:44.242Z,21.93
2018-10-19T18:14:12.438Z,21.17
2018-10-19T18:16:40.650Z,21.47
2018-10-19T18:19:08.834Z,21.00
2018-10-19T18:21:37.171Z,20.63
2018-10-19T18:24:05.396Z,20.40
2018-10-19T18:26:33.548Z,20.43
2018-10-19T18:29:01.821Z,18.93
2018-10-19T18:31:29.984Z,18.50
2018-10-19T18:33:58.171Z,20.20
2018-10-19T18:36:26.941Z,20.00
2018-10-19T18:38:55.171Z,20.53
2018-10-19T18:41:24.345Z,20.37
2018-10-19T18:43:52.521Z,18.60
2018-10-19T18:46:20.650Z,19.87
2018-10-19T18:48:48.855Z,20.40
2018-10-19T18:51:17.002Z,20.80
2018-10-19T18:53:45.206Z,19.57
2018-10-19T18:56:13.557Z,20.93
2018-10-19T18:58:41.622Z,20.53
2018-10-19T19:01:09.846Z,19.83
2018-10-19T19:03:38.049Z,20.20
2018-10-19T19:06:06.223Z,19.03
2018-10-19T19:08:34.426Z,21.00
2018-10-19T19:11:03.423Z,19.37
2018-10-19T19:13:32.526Z,19.67
2018-10-19T19:16:01.158Z,20.90
2018-10-19T19:18:29.330Z,21.40
2018-10-19T19:20:57.542Z,20.50
2018-10-19T19:23:25.746Z,19.87
2018-10-19T19:25:59.292Z,20.90
2018-10-19T19:28:27.473Z,21.00
2018-10-19T19:30:55.625Z,20.67
2018-10-19T19:33:29.530Z,19.30
2018-10-19T19:35:57.723Z,21.47
2018-10-19T19:38:25.931Z,19.37
2018-10-19T19:40:59.906Z,19.10
2018-10-19T19:43:28.069Z,18.60
2018-10-19T19:45:56.562Z,19.57
2018-10-19T19:48:30.221Z,19.40
2018-10-19T19:50:59.030Z,19.37
2018-10-19T19:53:27.215Z,18.40
2018-10-19T19:55:55.411Z,19.07
2018-10-19T19:58:23.642Z,18.33
2018-10-19T20:00:51.834Z,18.93
2018-10-19T20:03:20.097Z,18.20
2018-10-19T20:05:48.702Z,18.03
2018-10-19T20:08:16.910Z,17.97
2018-10-19T20:10:45.038Z,16.90
2018-10-19T20:13:13.756Z,16.07
2018-10-19T20:15:42.162Z,19.07
2018-10-19T20:18:11.967Z,18.20
2018-10-19T20:20:40.115Z,17.60
2018-10-19T20:23:10.244Z,18.30
2018-10-19T20:25:38.694Z,17.57
2018-10-19T20:28:06.884Z,18.13
2018-10-19T20:30:35.038Z,16.30
2018-10-19T20:33:03.242Z,16.17
2018-10-19T20:35:31.578Z,16.53
2018-10-19T20:37:59.830Z,18.07
2018-10-19T20:40:27.992Z,18.00
2018-10-19T20:42:56.630Z,17.17
2018-10-19T20:45:24.795Z,15.50
2018-10-19T20:47:52.983Z,16.63
2018-10-19T20:50:21.162Z,16.77
2018-10-19T20:52:49.390Z,16.83
2018-10-19T20:55:17.566Z,16.90
2018-10-19T20:57:45.955Z,17.10
2018-10-19T21:00:14.129Z,16.27
2018-10-19T21:02:42.302Z,17.23
2018-10-19T21:05:12.390Z,16.90
2018-10-19T21:07:40.610Z,17.63
2018-10-19T21:10:10.717Z,18.37
2018-10-19T21:12:39.110Z,16.43
2018-10-19T21:15:09.151Z,17.80
2018-10-19T21:17:37.747Z,18.67
2018-10-19T21:20:08.799Z,19.50
2018-10-19T21:22:38.329Z,18.43
2018-10-19T21:25:07.374Z,18.67
2018-10-19T21:27:35.823Z,18.23
2018-10-19T21:30:04.366Z,18.37
2018-10-19T21:32:32.542Z,17.77
2018-10-19T21:35:00.997Z,19.10
2018-10-19T21:37:29.175Z,19.47
2018-10-19T21:39:58.066Z,17.43
2018-10-19T21:42:26.242Z,19.50
2018-10-19T21:44:54.785Z,20.07
2018-10-19T21:47:22.948Z,21.67
2018-10-19T21:49:51.127Z,21.17
2018-10-19T21:52:21.032Z,20.70
2018-10-19T21:54:49.634Z,19.73
2018-10-19T21:57:17.790Z,20.87
2018-10-19T21:59:45.965Z,18.40
2018-10-19T22:02:14.195Z,19.03
2018-10-19T22:04:42.375Z,19.93
2018-10-19T22:07:10.604Z,19.87
2018-10-19T22:09:38.831Z,22.03
2018-10-19T22:12:07.034Z,22.57
2018-10-19T22:14:35.314Z,20.33
2018-10-19T22:17:03.528Z,20.20
2018-10-19T22:19:32.230Z,19.50
2018-10-19T22:22:01.922Z,18.83
2018-10-19T22:24:30.111Z,18.13
2018-10-19T22:26:58.310Z,20.73
2018-10-19T22:29:26.755Z,21.50
2018-10-19T22:31:54.965Z,21.07
2018-10-19T22:34:23.203Z,22.03
2018-10-19T22:36:52.282Z,21.80
2018-10-19T22:39:20.450Z,20.87
2018-10-19T22:41:48.611Z,20.73
2018-10-19T22:44:16.831Z,20.53
2018-10-19T22:46:45.030Z,20.97
2018-10-19T22:49:13.617Z,19.20
2018-10-19T22:51:41.758Z,19.30
2018-10-19T22:54:09.912Z,19.00
2018-10-19T22:56:38.442Z,19.47
2018-10-19T22:59:06.963Z,21.27
2018-10-19T23:01:35.267Z,21.70
2018-10-19T23:04:03.474Z,21.93
2018-10-19T23:06:31.809Z,21.20
2018-10-19T23:09:00.366Z,22.17
2018-10-19T23:11:28.866Z,22.57
2018-10-19T23:13:57.685Z,21.23
2018-10-19T23:16:27.327Z,21.93
2018-10-19T23:18:56.093Z,22.27
2018-10-19T23:21:24.322Z,22.77
2018-10-19T23:23:52.454Z,23.83
2018-10-19T23:26:20.626Z,23.87
2018-10-19T23:28:49.166Z,23.20
2018-10-19T23:31:17.380Z,22.57
2018-10-19T23:33:46.284Z,21.23
2018-10-19T23:36:14.591Z,20.50
2018-10-19T23:38:43.614Z,20.93
2018-10-19T23:41:11.826Z,22.23
2018-10-19T23:43:40.370Z,22.90
2018-10-19T23:46:08.625Z,24.27
2018-10-19T23:48:37.355Z,23.67
2018-10-19T23:51:05.975Z,27.13
2018-10-19T23:53:34.146Z,28.30
2018-10-19T23:56:02.374Z,28.27
2018-10-19T23:58:30.623Z,30.47
